Terminal Aerodrome Forecast
Issued by NWS Shreveport, LA

Home | Current Version | Previous Version | Text Only | Print | Product List | Glossary On
Versions: 1 2 3 4 5 6 7 8 9 10 11 12 13 14 15 16 17 18 19 20 21 22 23 24 25 26 27
970
FTUS44 KSHV 222033 AAB
TAFSHV
TAF AMD
KSHV 222033Z 2221/2318 07005KT P6SM VCSH SCT015 OVC100
      TEMPO 2221/2223 6SM -SHRA BR BKN009 OVC100
     FM230000 05003KT P6SM SCT015 OVC100
     FM230600 36003KT P6SM OVC015
      TEMPO 2308/2312 3SM BR OVC008
     FM231500 32005KT P6SM OVC010=

USA.gov is the U.S. government's official web portal to all federal, state and local government web resources and services.